Time;durP1;ratioP1;P1;durP2;ratioP2;P2;SDS_P1;SDS_P2;PMS_P1;PMS_P2;Temp;Humidity;BMP_temperature;BMP_pressure;BME280_temperature;BME280_humidity;BME280_pressure;Samples;Min_cycle;Max_cycle;Signal;HPM_P1;HPM_P2
2022/07/06 00:02:08;;;;;;;3.40;3.20;;;17.90;98.80;;;;;;4961627;28;20189;-88
2022/07/06 00:04:33;;;;;;;3.70;3.40;;;17.70;98.60;;;;;;4959602;28;20532;-89
2022/07/06 00:06:59;;;;;;;3.90;3.20;;;17.60;99.20;;;;;;4960313;28;20212;-88
2022/07/06 00:09:24;;;;;;;3.37;3.17;;;17.50;99.30;;;;;;4955291;28;20655;-88
2022/07/06 00:11:50;;;;;;;3.00;2.83;;;17.50;99.80;;;;;;4956092;28;20205;-89
2022/07/06 00:14:15;;;;;;;3.97;3.60;;;17.40;99.90;;;;;;4960290;28;20190;-90
2022/07/06 00:16:41;;;;;;;3.67;3.37;;;17.30;99.90;;;;;;4976201;28;20196;-90
2022/07/06 00:19:06;;;;;;;3.77;3.47;;;17.30;99.90;;;;;;4962601;28;20727;-90
2022/07/06 00:21:32;;;;;;;4.20;3.77;;;17.30;99.90;;;;;;4954638;28;20532;-90
2022/07/06 00:23:57;;;;;;;3.80;3.60;;;17.30;99.90;;;;;;4955636;28;20289;-89
2022/07/06 00:26:23;;;;;;;5.63;3.57;;;17.20;99.90;;;;;;4967643;28;20197;-88
2022/07/06 00:28:48;;;;;;;3.43;3.13;;;17.10;99.90;;;;;;4999831;28;20200;-88
2022/07/06 00:31:14;;;;;;;6.10;3.70;;;17.10;99.90;;;;;;4959705;28;20243;-90
2022/07/06 00:33:39;;;;;;;3.50;3.30;;;17.10;99.90;;;;;;4958992;28;20280;-87
2022/07/06 00:36:05;;;;;;;3.70;3.40;;;17.10;99.90;;;;;;4950486;28;20198;-88
2022/07/06 00:38:31;;;;;;;4.60;3.40;;;17.10;99.90;;;;;;4959497;28;20218;-88
2022/07/06 00:40:56;;;;;;;4.13;3.77;;;17.10;99.90;;;;;;4960112;28;20264;-88
2022/07/06 00:43:22;;;;;;;4.03;3.73;;;17.10;99.90;;;;;;4977500;28;20260;-89
2022/07/06 00:45:47;;;;;;;4.30;3.90;;;17.20;99.90;;;;;;4961054;28;20289;-88
2022/07/06 00:48:13;;;;;;;3.67;3.40;;;17.20;99.90;;;;;;4961716;28;20812;-89
2022/07/06 00:51:37;;;;;;;4.00;3.50;;;17.20;99.90;;;;;;4959618;28;20201;-89
2022/07/06 00:54:04;;;;;;;4.00;3.70;;;17.30;99.90;;;;;;4940582;28;21063;-90
2022/07/06 00:56:31;;;;;;;3.57;3.37;;;17.20;99.90;;;;;;4991621;28;20437;-89
2022/07/06 00:58:58;;;;;;;4.40;3.30;;;17.20;99.90;;;;;;4956903;28;20444;-89
2022/07/06 08:24:01;;;;;;;5.97;5.37;;;21.00;97.00;;;;;;5016689;28;20485;-91
2022/07/06 08:26:49;;;;;;;5.67;5.17;;;20.80;95.40;;;;;;5020264;28;20442;-91
2022/07/06 08:29:20;;;;;;;4.70;4.30;;;20.80;97.30;;;;;;5006007;28;20557;-91
2022/07/06 08:31:48;;;;;;;5.77;5.27;;;21.20;96.40;;;;;;5006353;28;20473;-92
2022/07/06 08:34:14;;;;;;;5.00;4.70;;;21.30;97.80;;;;;;5004437;28;20455;-92
2022/07/06 08:36:40;;;;;;;4.00;3.60;;;21.40;96.30;;;;;;5018489;28;20188;-91
2022/07/06 08:39:06;;;;;;;7.70;5.30;;;21.50;96.30;;;;;;5029949;28;20180;-90
2022/07/06 08:41:34;;;;;;;5.43;5.00;;;21.50;95.70;;;;;;5041318;28;20196;-92
2022/07/06 08:44:00;;;;;;;6.43;5.03;;;21.50;95.60;;;;;;5054570;28;20467;-92
2022/07/06 08:46:28;;;;;;;6.97;6.37;;;21.20;95.40;;;;;;4989010;28;20483;-94
2022/07/06 08:48:55;;;;;;;6.50;5.90;;;20.60;95.00;;;;;;5002763;28;20896;-94
2022/07/06 08:51:22;;;;;;;104.90;96.07;;;20.40;95.40;;;;;;5002325;28;20948;-94
2022/07/06 08:53:49;;;;;;;6.87;6.37;;;20.30;96.50;;;;;;5026728;28;20449;-96
2022/07/06 08:56:41;;;;;;;5.77;5.27;;;20.80;97.40;;;;;;5020299;28;20447;-96
2022/07/06 08:59:11;;;;;;;6.63;5.43;;;21.20;96.80;;;;;;5030448;28;20448;-96
2022/07/06 09:01:38;;;;;;;6.30;4.97;;;21.50;94.90;;;;;;5038864;28;20454;-95
2022/07/06 09:04:06;;;;;;;6.03;5.53;;;21.80;95.00;;;;;;5035211;28;20427;-96
2022/07/06 09:06:35;;;;;;;6.60;5.90;;;21.50;93.40;;;;;;5028589;28;20430;-96
2022/07/06 09:09:04;;;;;;;6.63;5.97;;;21.00;94.60;;;;;;5027336;28;20443;-96
2022/07/06 09:11:30;;;;;;;6.83;5.93;;;21.00;95.40;;;;;;5022243;28;20423;-95
2022/07/06 09:13:56;;;;;;;6.50;4.37;;;20.70;95.70;;;;;;5021574;28;20808;-96
2022/07/06 09:16:36;;;;;;;6.10;5.50;;;21.20;96.50;;;;;;5024716;28;20185;-96
2022/07/06 09:19:12;;;;;;;5.97;5.47;;;21.90;97.30;;;;;;5016537;28;20683;-96
2022/07/06 09:22:28;;;;;;;5.80;5.40;;;22.10;97.50;;;;;;5026426;28;20449;-94
2022/07/06 09:25:13;;;;;;;6.23;5.00;;;22.20;94.70;;;;;;5029868;28;20494;-93
2022/07/06 09:27:49;;;;;;;5.10;4.80;;;22.20;94.20;;;;;;5022960;28;20447;-93
2022/07/06 09:30:18;;;;;;;8.43;5.33;;;22.20;93.80;;;;;;5023351;28;20449;-96
2022/07/06 09:32:46;;;;;;;5.13;4.70;;;22.10;92.40;;;;;;5014708;28;20899;-95
2022/07/06 09:35:29;;;;;;;5.70;5.10;;;22.10;92.90;;;;;;5006681;28;20438;-94
2022/07/06 09:38:08;;;;;;;5.33;4.93;;;22.80;95.30;;;;;;5009150;28;20811;-96
2022/07/06 09:40:36;;;;;;;4.90;4.50;;;22.80;92.70;;;;;;5025500;28;20485;-94
2022/07/06 09:43:10;;;;;;;6.13;5.60;;;23.00;93.20;;;;;;5010740;28;20474;-90
2022/07/06 09:45:36;;;;;;;5.40;5.00;;;22.50;91.00;;;;;;5004464;28;20443;-95
2022/07/06 09:48:34;;;;;;;4.87;4.40;;;21.80;91.30;;;;;;5004921;28;20446;-96
2022/07/06 09:51:05;;;;;;;5.93;5.40;;;21.90;91.50;;;;;;5015634;28;20529;-92
2022/07/06 09:53:31;;;;;;;6.77;5.97;;;21.70;91.60;;;;;;5012982;28;20465;-96
2022/07/06 09:56:07;;;;;;;6.57;5.07;;;21.50;92.90;;;;;;5037481;28;20443;-95
2022/07/06 09:58:41;;;;;;;5.73;4.80;;;22.10;93.80;;;;;;5013027;28;20288;-96
2022/07/06 10:01:34;;;;;;;4.93;4.43;;;22.90;91.70;;;;;;5007610;28;20932;-96
2022/07/06 10:04:06;;;;;;;5.80;5.10;;;23.00;91.90;;;;;;5002564;28;20708;-94
2022/07/06 10:06:32;;;;;;;5.60;5.10;;;22.10;91.30;;;;;;5005413;28;20446;-95
2022/07/06 10:08:59;;;;;;;6.67;5.70;;;21.80;92.80;;;;;;5004088;28;20457;-91
2022/07/06 10:11:26;;;;;;;6.20;4.57;;;21.80;93.10;;;;;;5010006;28;20428;-96
2022/07/06 10:13:55;;;;;;;5.60;5.10;;;23.00;94.40;;;;;;5008287;28;20478;-95
2022/07/06 10:16:23;;;;;;;4.97;4.57;;;23.00;91.00;;;;;;5016173;28;21159;-96
2022/07/06 10:19:06;;;;;;;5.57;5.17;;;23.50;92.50;;;;;;5001919;28;20439;-95
2022/07/06 10:21:35;;;;;;;7.50;4.83;;;24.50;94.90;;;;;;4997779;28;20546;-90
2022/07/06 10:24:01;;;;;;;5.80;4.70;;;24.10;91.60;;;;;;4987019;28;20463;-91
2022/07/06 10:26:27;;;;;;;4.93;4.60;;;24.20;91.50;;;;;;4994806;28;20442;-92
2022/07/06 10:28:55;;;;;;;5.53;4.47;;;24.50;92.20;;;;;;4990035;28;20860;-91
2022/07/06 10:31:22;;;;;;;5.47;4.60;;;24.40;90.90;;;;;;5013429;28;20845;-92
2022/07/06 10:33:48;;;;;;;5.03;4.60;;;24.10;91.60;;;;;;5033963;28;21317;-92
2022/07/06 10:36:14;;;;;;;6.33;4.87;;;24.10;91.20;;;;;;5029698;28;20435;-91
2022/07/06 10:38:40;;;;;;;5.13;4.67;;;24.00;90.50;;;;;;4991213;28;20188;-89
2022/07/06 10:41:09;;;;;;;4.97;3.93;;;24.30;92.20;;;;;;4997844;28;20749;-90
2022/07/06 10:43:56;;;;;;;4.40;4.00;;;24.20;91.00;;;;;;4987695;28;20571;-90
2022/07/06 10:46:22;;;;;;;5.87;4.33;;;23.60;90.20;;;;;;4989892;28;20482;-88
2022/07/06 10:48:48;;;;;;;4.00;3.60;;;23.70;91.30;;;;;;4996733;28;20911;-88
2022/07/06 10:51:28;;;;;;;6.40;3.90;;;23.70;91.00;;;;;;4988228;28;20189;-89
2022/07/06 10:53:59;;;;;;;6.47;4.10;;;23.90;92.10;;;;;;4991849;28;20541;-88
2022/07/06 10:56:39;;;;;;;4.67;4.27;;;23.90;91.00;;;;;;4994883;28;20469;-90
2022/07/06 10:59:19;;;;;;;4.27;3.97;;;23.60;90.00;;;;;;4999169;28;20949;-90
2022/07/06 11:02:17;;;;;;;7.37;4.20;;;23.90;90.30;;;;;;4993754;28;24034;-90
2022/07/06 11:04:48;;;;;;;3.90;3.70;;;24.00;90.70;;;;;;4997157;28;20446;-90
2022/07/06 11:07:18;;;;;;;4.80;4.40;;;23.90;90.40;;;;;;5027011;28;21167;-88
2022/07/06 11:09:58;;;;;;;4.90;3.80;;;24.00;90.00;;;;;;4990896;28;21043;-90
2022/07/06 11:12:23;;;;;;;4.93;4.40;;;24.10;90.00;;;;;;4985849;28;21190;-90
2022/07/06 11:14:51;;;;;;;4.60;4.30;;;24.20;88.30;;;;;;4983741;28;20450;-91
2022/07/06 11:17:17;;;;;;;4.90;4.00;;;24.30;90.60;;;;;;4992103;28;20368;-91
2022/07/06 11:20:08;;;;;;;6.17;5.00;;;24.30;91.10;;;;;;4997269;28;20794;-90
2022/07/06 11:22:36;;;;;;;4.63;4.10;;;24.20;88.80;;;;;;4999164;28;20235;-94
2022/07/06 11:25:02;;;;;;;11.60;4.90;;;24.50;90.10;;;;;;5037129;28;20446;-89
2022/07/06 11:27:29;;;;;;;8.43;3.50;;;25.20;91.00;;;;;;5030516;28;20536;-91
2022/07/06 11:29:55;;;;;;;5.67;5.27;;;25.40;91.30;;;;;;4996613;28;20801;-89
2022/07/06 11:32:25;;;;;;;7.10;4.57;;;25.20;84.70;;;;;;4998561;28;20452;-89
2022/07/06 11:34:51;;;;;;;4.50;4.10;;;25.00;88.10;;;;;;5033596;28;20601;-90
2022/07/06 11:37:20;;;;;;;4.73;4.43;;;25.20;89.40;;;;;;5003136;28;20440;-91
2022/07/06 11:39:48;;;;;;;6.10;5.57;;;25.30;90.40;;;;;;4997436;28;20215;-90
2022/07/06 11:42:19;;;;;;;5.37;3.90;;;26.00;89.70;;;;;;5002314;28;20479;-93
2022/07/06 11:44:50;;;;;;;4.27;3.87;;;25.10;83.80;;;;;;4994073;28;20569;-90
2022/07/06 11:47:16;;;;;;;4.77;4.37;;;24.90;84.50;;;;;;5003976;28;20565;-88
2022/07/06 11:49:42;;;;;;;4.40;4.00;;;24.80;83.90;;;;;;4994283;28;20519;-91
2022/07/06 11:52:13;;;;;;;4.60;4.13;;;24.70;87.70;;;;;;5029106;22;21686;-89
2022/07/06 11:55:00;;;;;;;4.27;3.97;;;25.40;90.00;;;;;;4977651;28;20190;-88
2022/07/06 11:57:30;;;;;;;4.03;3.57;;;26.00;87.60;;;;;;4929331;28;20436;-89
2022/07/06 11:59:57;;;;;;;4.07;3.70;;;26.30;88.40;;;;;;4967314;28;20437;-92
2022/07/06 12:02:23;;;;;;;4.20;3.77;;;26.80;88.00;;;;;;4953592;28;20470;-90
2022/07/06 12:05:02;;;;;;;5.70;4.60;;;26.10;81.90;;;;;;4959177;28;20451;-92
2022/07/06 12:07:28;;;;;;;6.43;4.03;;;25.80;85.30;;;;;;4998411;28;20626;-92
2022/07/06 12:09:57;;;;;;;7.57;4.63;;;25.40;83.30;;;;;;4965366;28;20461;-95
2022/07/06 12:12:24;;;;;;;4.60;4.30;;;24.80;86.10;;;;;;4962881;28;20783;-93
2022/07/06 12:14:53;;;;;;;5.23;4.60;;;24.50;85.60;;;;;;4977672;28;20780;-93
2022/07/06 12:17:18;;;;;;;6.10;4.60;;;24.20;89.80;;;;;;4957385;28;20444;-95
2022/07/06 12:19:52;;;;;;;4.60;4.30;;;24.10;89.50;;;;;;4976570;28;20794;-94
2022/07/06 12:22:26;;;;;;;8.43;4.37;;;24.30;88.40;;;;;;4981878;28;20686;-94
2022/07/06 12:24:58;;;;;;;5.90;4.40;;;23.90;87.00;;;;;;4959286;28;21698;-93
2022/07/06 12:27:39;;;;;;;5.17;4.67;;;23.60;90.20;;;;;;4980490;28;20464;-94
2022/07/06 12:30:24;;;;;;;5.17;4.27;;;23.80;90.70;;;;;;4970309;28;20438;-93
2022/07/06 12:33:15;;;;;;;5.40;5.00;;;24.00;89.70;;;;;;4973888;28;20475;-90
2022/07/06 12:35:44;;;;;;;5.33;4.70;;;23.70;87.70;;;;;;4966783;28;20540;-92
2022/07/06 12:38:10;;;;;;;4.67;4.37;;;23.30;89.40;;;;;;4955523;28;21811;-90
2022/07/06 12:40:36;;;;;;;5.33;4.83;;;23.20;90.50;;;;;;4974076;28;20529;-91
2022/07/06 12:43:07;;;;;;;5.87;5.37;;;23.30;90.90;;;;;;4980968;28;20814;-92
2022/07/06 12:45:51;;;;;;;5.20;4.87;;;23.40;89.80;;;;;;4961499;28;21078;-90
2022/07/06 12:48:27;;;;;;;4.73;4.33;;;23.70;88.00;;;;;;4958718;28;20445;-91
2022/07/06 12:50:59;;;;;;;4.60;4.30;;;24.10;91.00;;;;;;4953640;28;20910;-90
2022/07/06 12:53:26;;;;;;;5.40;5.00;;;25.00;90.70;;;;;;4977582;28;20971;-89
2022/07/06 12:56:19;;;;;;;5.37;4.93;;;24.80;90.30;;;;;;4977793;28;20440;-91
2022/07/06 12:58:59;;;;;;;4.90;4.50;;;24.40;90.40;;;;;;4959285;28;20460;-91
2022/07/06 13:01:25;;;;;;;6.10;4.50;;;24.80;90.70;;;;;;4957253;28;20957;-93
2022/07/06 13:03:56;;;;;;;5.03;4.57;;;25.20;90.10;;;;;;4962829;28;20500;-91
2022/07/06 13:06:36;;;;;;;7.07;4.67;;;25.00;90.40;;;;;;4971743;28;20492;-88
2022/07/06 13:09:13;;;;;;;5.30;4.90;;;24.50;88.00;;;;;;4976121;28;20481;-91
2022/07/06 13:12:28;;;;;;;7.10;5.20;;;24.40;89.50;;;;;;4967819;28;21992;-92
2022/07/06 13:14:53;;;;;;;10.20;5.30;;;24.30;90.40;;;;;;4977422;28;20828;-94
2022/07/06 13:17:19;;;;;;;6.37;4.60;;;25.10;91.00;;;;;;4968839;28;20441;-86
2022/07/06 13:19:45;;;;;;;7.37;4.90;;;25.50;89.80;;;;;;4961577;28;20181;-91
2022/07/06 13:22:23;;;;;;;9.73;4.87;;;25.50;87.40;;;;;;4960911;28;20216;-94
2022/07/06 13:24:49;;;;;;;5.03;4.50;;;24.90;88.10;;;;;;4972932;28;20956;-90
2022/07/06 13:27:15;;;;;;;5.70;4.43;;;25.80;87.80;;;;;;4989437;28;20448;-91
2022/07/06 13:29:41;;;;;;;4.03;3.83;;;26.20;86.40;;;;;;4963679;28;20193;-92
2022/07/06 13:32:07;;;;;;;4.97;4.03;;;26.40;86.10;;;;;;4949381;28;20206;-91
2022/07/06 13:34:35;;;;;;;5.97;4.63;;;26.60;86.60;;;;;;4970271;28;20264;-90
2022/07/06 13:37:01;;;;;;;4.93;4.17;;;27.20;85.90;;;;;;4953418;28;20537;-90
2022/07/06 13:39:27;;;;;;;5.87;4.93;;;27.80;84.40;;;;;;4960037;28;20523;-88
2022/07/06 13:41:54;;;;;;;5.67;4.40;;;26.80;79.10;;;;;;4949590;28;20513;-91
2022/07/06 13:44:19;;;;;;;6.80;4.17;;;26.00;83.80;;;;;;4978376;28;20194;-89
2022/07/06 13:46:45;;;;;;;5.37;4.67;;;25.50;85.00;;;;;;4969202;28;20959;-92
2022/07/06 13:49:17;;;;;;;4.87;4.47;;;26.00;85.70;;;;;;4987251;28;20471;-93
2022/07/06 13:51:42;;;;;;;5.13;4.63;;;25.70;85.50;;;;;;4990618;28;20205;-89
2022/07/06 13:54:09;;;;;;;5.43;4.67;;;26.70;83.10;;;;;;4974809;28;20467;-91
2022/07/06 13:56:36;;;;;;;4.87;4.37;;;26.40;81.30;;;;;;4951291;28;20202;-89
2022/07/06 13:59:02;;;;;;;5.40;4.90;;;26.50;82.50;;;;;;4970376;28;21279;-92
2022/07/06 14:01:27;;;;;;;4.90;4.50;;;26.50;80.70;;;;;;4971448;28;24513;-89
2022/07/06 14:03:56;;;;;;;4.20;3.90;;;26.80;77.00;;;;;;4974572;28;20273;-91
2022/07/06 14:06:25;;;;;;;4.10;3.70;;;28.20;80.50;;;;;;4960639;28;20219;-92
2022/07/06 14:08:54;;;;;;;4.00;3.50;;;28.80;73.60;;;;;;4952587;28;20444;-90
2022/07/06 14:11:19;;;;;;;4.83;4.20;;;30.70;71.30;;;;;;4977166;28;20536;-90
2022/07/06 14:13:45;;;;;;;3.83;3.53;;;29.70;68.10;;;;;;4953001;28;20190;-90
2022/07/06 14:16:11;;;;;;;5.17;4.37;;;27.30;73.70;;;;;;4974791;28;20613;-90
2022/07/06 14:54:48;;;;;;;4.23;3.67;;;29.50;60.20;;;;;;5011598;28;20482;-91
2022/07/06 14:57:21;;;;;;;3.50;3.20;;;31.40;59.70;;;;;;4998032;28;20459;-91
2022/07/06 14:59:46;;;;;;;4.93;3.87;;;30.30;59.00;;;;;;5012943;28;20500;-90
2022/07/06 15:02:12;;;;;;;5.10;3.60;;;29.40;61.90;;;;;;4988526;28;21864;-95
2022/07/06 15:04:39;;;;;;;3.63;3.33;;;31.40;58.50;;;;;;4996409;28;20693;-94
2022/07/06 15:07:04;;;;;;;3.80;2.70;;;33.80;58.10;;;;;;5033091;28;20207;-95
2022/07/06 15:09:42;;;;;;;3.70;3.40;;;36.80;54.20;;;;;;5003060;28;21087;-93
2022/07/06 15:12:08;;;;;;;7.73;7.03;;;37.20;49.90;;;;;;5015366;28;20215;-94
2022/07/06 15:14:34;;;;;;;8.77;8.17;;;35.70;51.10;;;;;;5002813;28;20451;-93
2022/07/06 15:17:00;;;;;;;2.87;2.73;;;35.30;51.10;;;;;;4989325;28;20976;-91
2022/07/06 15:19:27;;;;;;;2.90;2.67;;;35.80;47.50;;;;;;4995545;28;20185;-91
2022/07/06 15:21:54;;;;;;;3.10;2.90;;;34.40;50.50;;;;;;4990408;28;20446;-91
2022/07/06 15:24:20;;;;;;;3.63;3.20;;;32.80;52.00;;;;;;4993172;28;20447;-90
2022/07/06 15:26:46;;;;;;;5.43;3.60;;;31.10;55.30;;;;;;4996343;28;20865;-90
2022/07/06 15:29:12;;;;;;;4.17;3.67;;;29.30;58.40;;;;;;4990546;28;20777;-93
2022/07/06 15:31:38;;;;;;;6.13;4.50;;;27.50;59.50;;;;;;4996037;28;20188;-91
2022/07/06 15:34:04;;;;;;;4.40;3.60;;;25.50;64.20;;;;;;4998948;28;20243;-94
2022/07/06 15:36:38;;;;;;;3.60;3.30;;;25.50;66.90;;;;;;5008919;28;20223;-92
2022/07/06 15:39:18;;;;;;;4.13;3.10;;;27.60;66.10;;;;;;5011924;28;21003;-93
2022/07/06 15:41:43;;;;;;;3.40;3.10;;;29.40;62.10;;;;;;5001301;28;20990;-92
2022/07/06 15:44:10;;;;;;;4.33;3.20;;;28.60;59.50;;;;;;4996579;28;20439;-93
2022/07/06 15:46:38;;;;;;;4.10;3.67;;;26.40;62.40;;;;;;4996134;28;20245;-92
2022/07/06 15:49:06;;;;;;;7.63;4.07;;;25.30;64.90;;;;;;5013822;28;20450;-92
2022/07/06 15:51:40;;;;;;;4.13;3.27;;;26.20;66.30;;;;;;5002561;28;20437;-93
2022/07/06 15:54:05;;;;;;;3.50;3.20;;;27.50;61.50;;;;;;5000147;28;20506;-93
2022/07/06 15:56:41;;;;;;;3.60;3.20;;;27.00;61.80;;;;;;4998094;28;20491;-93
2022/07/06 15:59:15;;;;;;;3.30;3.03;;;25.80;63.60;;;;;;5026042;28;20738;-93
2022/07/06 16:01:41;;;;;;;5.10;2.93;;;26.70;62.00;;;;;;5012263;28;20685;-92
2022/07/06 16:04:07;;;;;;;3.10;2.83;;;27.30;61.10;;;;;;5007782;28;20188;-92
2022/07/06 16:06:33;;;;;;;10.50;3.43;;;29.00;61.60;;;;;;5004105;28;20183;-92
2022/07/06 16:08:59;;;;;;;3.73;3.03;;;31.10;57.80;;;;;;5018215;28;20451;-93
2022/07/06 16:11:27;;;;;;;2.73;2.53;;;34.20;55.70;;;;;;5002059;28;20184;-91
2022/07/06 16:14:04;;;;;;;3.30;2.80;;;34.60;49.80;;;;;;5006683;28;20232;-92
2022/07/06 16:16:33;;;;;;;3.60;3.27;;;32.20;52.70;;;;;;5005662;28;20917;-93
2022/07/06 16:19:04;;;;;;;2.87;2.67;;;29.80;54.90;;;;;;5013876;28;20454;-93
2022/07/06 16:22:05;;;;;;;4.60;3.47;;;29.10;59.10;;;;;;5005734;28;20473;-93
2022/07/06 16:24:48;;;;;;;3.30;2.80;;;30.20;55.30;;;;;;5009384;28;20454;-92
2022/07/06 16:27:37;;;;;;;3.20;2.50;;;29.00;56.20;;;;;;5004668;28;20438;-94
2022/07/06 16:30:17;;;;;;;2.90;2.67;;;31.00;55.90;;;;;;5003569;28;20675;-93
2022/07/06 16:32:45;;;;;;;3.07;2.87;;;29.80;53.90;;;;;;5033029;28;20964;-94
2022/07/06 16:35:32;;;;;;;3.10;2.57;;;30.30;54.20;;;;;;5004897;28;20450;-93
2022/07/06 16:38:00;;;;;;;3.60;3.00;;;31.00;53.30;;;;;;5001271;28;20435;-92
2022/07/06 16:40:29;;;;;;;3.07;2.83;;;28.80;54.80;;;;;;5006427;28;20534;-93
2022/07/06 16:43:10;;;;;;;2.70;2.50;;;26.70;58.40;;;;;;5023974;28;20447;-95
2022/07/06 16:45:37;;;;;;;6.40;2.90;;;26.80;59.90;;;;;;5002934;28;20496;-92
2022/07/06 16:48:05;;;;;;;2.90;2.70;;;26.60;59.80;;;;;;5015339;28;20454;-94
2022/07/06 16:50:31;;;;;;;2.63;2.53;;;26.40;61.10;;;;;;5002864;28;20443;-93
2022/07/06 16:52:57;;;;;;;3.03;2.73;;;25.80;61.20;;;;;;5010518;28;20470;-93
2022/07/06 16:55:23;;;;;;;3.53;3.07;;;25.50;62.20;;;;;;5006550;28;20177;-94
2022/07/06 16:57:49;;;;;;;3.20;2.90;;;24.90;63.50;;;;;;4997565;28;21063;-92
2022/07/06 17:00:14;;;;;;;3.10;2.80;;;25.10;65.20;;;;;;5020765;28;20191;-94
2022/07/06 17:02:40;;;;;;;2.70;2.50;;;24.60;61.90;;;;;;5003445;28;20180;-94
2022/07/06 17:05:06;;;;;;;2.73;2.63;;;23.50;63.80;;;;;;5007760;28;20199;-93
2022/07/06 17:07:31;;;;;;;2.90;2.70;;;23.50;66.40;;;;;;5007072;28;20185;-92
2022/07/06 17:09:58;;;;;;;3.30;3.00;;;23.30;65.20;;;;;;5004403;28;20195;-92
2022/07/06 17:12:23;;;;;;;2.93;2.70;;;23.00;66.00;;;;;;5001685;28;20216;-92
2022/07/06 17:15:00;;;;;;;3.03;2.63;;;23.00;66.70;;;;;;4999746;28;20820;-94
2022/07/06 17:17:26;;;;;;;5.27;2.83;;;22.90;67.60;;;;;;4999092;28;20267;-90
2022/07/06 17:19:55;;;;;;;5.67;2.80;;;22.80;66.70;;;;;;4995060;28;20453;-91
2022/07/06 17:22:23;;;;;;;6.70;3.10;;;22.30;68.50;;;;;;5011011;28;20472;-95
2022/07/06 17:24:56;;;;;;;4.10;2.63;;;22.30;69.20;;;;;;4997313;28;20593;-92
2022/07/06 17:27:22;;;;;;;4.90;3.23;;;22.50;70.30;;;;;;5005149;28;20518;-91
2022/07/06 17:29:56;;;;;;;2.20;2.10;;;22.80;70.60;;;;;;5034304;28;20323;-93
2022/07/06 17:32:22;;;;;;;2.80;2.53;;;22.40;67.90;;;;;;4997776;28;20277;-92
2022/07/06 17:34:56;;;;;;;2.80;2.60;;;22.10;69.50;;;;;;4993479;28;20459;-93
2022/07/06 17:37:36;;;;;;;2.73;2.40;;;21.80;67.40;;;;;;5001798;28;20490;-92
2022/07/06 17:40:02;;;;;;;2.27;2.17;;;21.60;69.30;;;;;;4998850;28;20501;-91
2022/07/06 17:42:28;;;;;;;3.13;2.40;;;21.80;69.40;;;;;;5010656;28;20184;-91
2022/07/06 17:44:57;;;;;;;4.93;2.60;;;22.00;69.20;;;;;;5005206;28;20184;-91
2022/07/06 17:47:31;;;;;;;2.30;2.10;;;22.80;68.10;;;;;;5002735;28;20176;-91
2022/07/06 17:49:58;;;;;;;2.53;2.33;;;23.30;65.40;;;;;;5010043;28;20439;-91
2022/07/06 17:52:23;;;;;;;2.37;2.23;;;23.10;64.00;;;;;;5018564;28;21511;-89
2022/07/06 17:55:09;;;;;;;5.33;2.40;;;22.70;65.20;;;;;;5016004;28;20506;-91
2022/07/06 17:57:34;;;;;;;2.30;2.17;;;22.30;62.60;;;;;;5018707;28;20242;-91
2022/07/06 18:00:00;;;;;;;3.00;2.30;;;22.00;63.90;;;;;;4997191;28;20464;-90
2022/07/06 18:02:26;;;;;;;3.03;2.13;;;22.20;67.10;;;;;;5001173;28;20596;-90
2022/07/06 18:04:51;;;;;;;3.43;2.30;;;22.70;66.30;;;;;;4999560;28;20490;-88
2022/07/06 18:07:17;;;;;;;2.47;2.27;;;22.80;63.20;;;;;;4992870;28;20192;-89
2022/07/06 18:09:42;;;;;;;2.40;2.30;;;23.10;64.00;;;;;;5003765;28;20263;-90
2022/07/06 18:12:11;;;;;;;3.70;2.27;;;23.70;62.60;;;;;;5004892;28;20215;-92
2022/07/06 18:14:37;;;;;;;2.40;2.20;;;24.70;63.40;;;;;;4997724;28;20184;-93
2022/07/06 18:17:08;;;;;;;5.27;2.70;;;24.30;59.60;;;;;;5014430;28;21034;-96
2022/07/06 18:19:34;;;;;;;4.63;2.50;;;23.20;60.90;;;;;;5050393;28;20215;-95
2022/07/06 18:21:59;;;;;;;2.30;2.10;;;23.40;65.10;;;;;;5024755;28;20438;-96
2022/07/06 18:24:25;;;;;;;3.10;2.37;;;22.70;67.70;;;;;;5022298;28;20224;-93
2022/07/06 18:27:01;;;;;;;3.13;2.80;;;22.60;66.20;;;;;;5032251;28;20252;-96
2022/07/06 18:29:48;;;;;;;9.00;8.10;;;22.20;64.80;;;;;;5019863;28;20477;-96
2022/07/06 18:32:21;;;;;;;4.70;4.30;;;21.60;66.10;;;;;;5005350;28;20539;-96
2022/07/06 18:35:20;;;;;;;3.00;2.80;;;21.70;67.30;;;;;;5025645;28;20477;-96
2022/07/06 18:37:52;;;;;;;3.37;3.17;;;21.10;66.40;;;;;;5038972;28;20470;-96
2022/07/06 18:40:18;;;;;;;3.80;3.20;;;21.30;68.10;;;;;;5001493;28;20462;-96
2022/07/06 18:42:43;;;;;;;3.67;3.40;;;21.20;69.00;;;;;;5021988;28;20427;-96
2022/07/06 18:45:10;;;;;;;4.40;3.03;;;22.50;67.60;;;;;;5028445;28;20184;-96
2022/07/06 18:47:35;;;;;;;8.80;8.03;;;22.60;63.40;;;;;;5022502;28;20219;-94
2022/07/06 18:50:01;;;;;;;3.20;2.80;;;22.40;65.10;;;;;;5030391;28;20430;-96
2022/07/06 18:55:18;;;;;;;3.70;2.43;;;22.00;65.20;;;;;;5501072;22;20224;-96
2022/07/06 19:00:32;;;;;;;4.00;2.50;;;21.70;66.00;;;;;;5111806;23;20503;-96
2022/07/06 19:10:46;;;;;;;4.13;3.07;;;20.50;67.00;;;;;;5445185;22;21684;-96
2022/07/06 19:13:16;;;;;;;5.13;3.40;;;20.50;68.30;;;;;;4980834;28;20473;-96
2022/07/06 19:15:58;;;;;;;4.60;3.60;;;20.60;69.50;;;;;;4998032;28;20453;-96
2022/07/06 19:18:28;;;;;;;15.47;14.10;;;20.30;70.40;;;;;;5111833;23;20496;-96
2022/07/06 19:20:56;;;;;;;3.87;3.33;;;20.20;70.70;;;;;;5013492;28;20440;-96
2022/07/06 19:33:44;;;;;;;4.70;2.93;;;19.80;71.40;;;;;;5725103;22;20483;-96
2022/07/06 20:09:44;;;;;;;2.17;2.03;;;18.70;74.50;;;;;;5029215;28;20466;-91
2022/07/06 20:12:11;;;;;;;3.67;2.90;;;18.70;73.90;;;;;;5027842;28;20477;-92
2022/07/06 20:14:42;;;;;;;3.23;2.77;;;18.60;74.10;;;;;;5036284;28;20592;-93
2022/07/06 20:17:07;;;;;;;4.20;2.73;;;18.50;74.40;;;;;;5034777;28;20446;-96
2022/07/06 20:19:35;;;;;;;2.47;2.27;;;18.40;74.80;;;;;;5036156;28;20514;-96
2022/07/06 20:22:04;;;;;;;2.70;2.50;;;18.20;74.90;;;;;;5039643;28;20199;-96
2022/07/06 20:24:30;;;;;;;3.07;2.40;;;18.50;75.40;;;;;;5020932;28;20842;-93
2022/07/06 20:26:56;;;;;;;2.33;2.13;;;18.20;75.70;;;;;;5023838;28;20226;-96
2022/07/06 20:29:27;;;;;;;2.53;2.33;;;18.10;75.80;;;;;;5033528;28;20467;-96
2022/07/06 20:32:01;;;;;;;2.50;2.30;;;18.10;76.10;;;;;;5029568;28;20427;-95
2022/07/06 20:34:33;;;;;;;5.10;2.30;;;18.00;76.20;;;;;;5042949;28;20453;-95
2022/07/06 20:36:59;;;;;;;5.70;2.13;;;18.00;76.50;;;;;;5070517;23;20893;-96
2022/07/06 20:39:37;;;;;;;2.90;2.13;;;18.00;76.60;;;;;;5010836;28;20494;-95
2022/07/06 20:42:03;;;;;;;3.00;2.73;;;18.10;76.90;;;;;;5011329;28;20180;-96
2022/07/06 20:44:48;;;;;;;2.73;2.53;;;18.10;77.30;;;;;;5570232;23;20502;-96
2022/07/06 20:47:14;;;;;;;3.07;2.77;;;17.90;76.40;;;;;;5016275;28;20667;-94
2022/07/06 20:49:45;;;;;;;4.40;2.70;;;17.70;76.70;;;;;;5012327;28;20489;-95
2022/07/06 20:52:11;;;;;;;18.00;16.10;;;17.90;77.20;;;;;;5011967;28;20451;-96
2022/07/06 20:54:44;;;;;;;3.63;2.80;;;17.70;77.80;;;;;;5006710;28;20427;-96
2022/07/06 20:57:18;;;;;;;3.00;2.20;;;17.60;77.80;;;;;;5024921;28;20439;-95
2022/07/06 20:59:44;;;;;;;2.20;2.00;;;17.60;77.50;;;;;;5005811;28;20472;-96
2022/07/06 21:02:11;;;;;;;3.00;2.73;;;17.60;78.80;;;;;;5003811;28;20446;-96
2022/07/06 21:04:36;;;;;;;2.83;2.10;;;17.60;80.00;;;;;;5007690;28;20199;-95
2022/07/06 21:07:02;;;;;;;2.50;1.90;;;17.60;80.10;;;;;;5012434;28;20499;-96
2022/07/06 21:09:37;;;;;;;2.70;2.27;;;17.60;80.60;;;;;;5029176;28;20174;-93
2022/07/06 21:12:03;;;;;;;5.33;2.60;;;17.70;80.40;;;;;;5008987;28;20753;-96
2022/07/06 21:14:28;;;;;;;2.73;1.80;;;17.80;82.60;;;;;;5007613;28;20451;-96
2022/07/06 21:17:03;;;;;;;2.60;2.40;;;17.70;83.70;;;;;;5159743;23;21253;-95
2022/07/06 21:19:47;;;;;;;3.50;2.37;;;17.60;85.60;;;;;;4983004;28;20194;-92
2022/07/06 21:22:12;;;;;;;2.83;2.50;;;17.40;84.70;;;;;;4985792;28;20432;-96
2022/07/06 21:24:56;;;;;;;5.57;2.33;;;17.50;85.70;;;;;;4989178;28;20499;-93
2022/07/06 21:27:22;;;;;;;4.00;2.43;;;17.40;84.60;;;;;;4975889;28;20236;-91
2022/07/06 21:29:56;;;;;;;2.80;2.30;;;17.20;83.60;;;;;;4980929;28;20441;-89
2022/07/06 21:32:35;;;;;;;2.40;2.20;;;17.20;84.50;;;;;;4970908;28;20624;-89
2022/07/06 21:35:03;;;;;;;2.60;2.03;;;18.00;85.50;;;;;;4988975;28;20456;-91
2022/07/06 21:37:31;;;;;;;2.33;2.07;;;17.60;83.60;;;;;;4970888;28;20445;-91
2022/07/06 21:40:06;;;;;;;2.43;2.33;;;17.60;85.60;;;;;;4985119;28;20198;-90
2022/07/06 21:42:40;;;;;;;3.57;2.30;;;17.50;86.20;;;;;;4965019;28;20440;-90
2022/07/06 21:45:07;;;;;;;2.53;2.27;;;17.30;86.70;;;;;;4981464;28;20453;-90
2022/07/06 21:47:33;;;;;;;2.53;2.33;;;17.40;87.00;;;;;;4961928;28;20632;-90
2022/07/06 21:49:59;;;;;;;2.50;2.30;;;17.60;87.30;;;;;;4972574;28;20444;-89
2022/07/06 21:52:25;;;;;;;4.97;2.67;;;17.50;87.10;;;;;;4973910;28;20471;-89
2022/07/06 21:54:51;;;;;;;4.37;2.33;;;17.30;87.30;;;;;;4984309;28;20191;-91
2022/07/06 21:57:18;;;;;;;4.60;2.50;;;17.20;86.70;;;;;;4980109;28;20433;-90
2022/07/06 21:59:55;;;;;;;7.87;2.60;;;17.20;87.20;;;;;;4972256;28;20173;-92